Time;durP1;ratioP1;P1;durP2;ratioP2;P2;SDS_P1;SDS_P2;PMS_P1;PMS_P2;Temp;Humidity;BMP_temperature;BMP_pressure;BME280_temperature;BME280_humidity;BME280_pressure;Samples;Min_cycle;Max_cycle;Signal;HPM_P1;HPM_P2
2022/10/03 00:00:38;;;;;;;5.27;2.83;;;;;;;;;;4961794;28;20228;-33
2022/10/03 00:03:14;;;;;;;3.17;2.40;;;;;;;;;;4974395;28;20255;-35
2022/10/03 00:05:52;;;;;;;2.67;2.43;;;;;;;;;;4968679;28;20212;-32
2022/10/03 00:08:26;;;;;;;3.60;3.30;;;;;;;;;;4970501;28;20209;-35
2022/10/03 00:10:59;;;;;;;3.03;2.83;;;;;;;;;;4967386;28;20311;-33
2022/10/03 00:13:28;;;;;;;2.83;2.57;;;;;;;;;;4972178;28;20212;-32
2022/10/03 00:16:04;;;;;;;3.50;3.20;;;;;;;;;;4963188;28;20260;-34
2022/10/03 00:18:36;;;;;;;4.07;3.67;;;;;;;;;;4969361;28;20236;-34
2022/10/03 00:21:10;;;;;;;5.73;4.13;;;;;;;;;;4969068;28;20314;-33
2022/10/03 00:23:42;;;;;;;9.87;6.00;;;;;;;;;;4968958;28;20231;-33
2022/10/03 00:29:12;;;;;;;8.03;4.03;;;;;;;;;;4965128;28;20211;-32
2022/10/03 00:31:45;;;;;;;5.70;4.03;;;;;;;;;;4971705;28;20208;-35
2022/10/03 00:34:22;;;;;;;5.00;3.73;;;;;;;;;;4975074;28;20209;-35
2022/10/03 00:36:54;;;;;;;9.10;3.73;;;;;;;;;;4969517;28;20215;-34
2022/10/03 00:39:32;;;;;;;13.77;3.60;;;;;;;;;;4969870;28;20344;-32
2022/10/03 00:42:30;;;;;;;5.53;3.40;;;;;;;;;;4969129;28;20205;-34
2022/10/03 00:45:11;;;;;;;5.70;3.90;;;;;;;;;;4906433;29;20215;-35
2022/10/03 00:47:58;;;;;;;13.97;3.90;;;;;;;;;;4963350;28;20204;-31
2022/10/03 00:50:38;;;;;;;16.50;3.97;;;;;;;;;;4973330;28;20232;-31
2022/10/03 00:53:12;;;;;;;9.33;4.03;;;;;;;;;;4973656;28;20224;-32
2022/10/03 00:55:46;;;;;;;7.03;4.40;;;;;;;;;;4974552;28;20198;-33
2022/10/03 00:58:24;;;;;;;4.30;3.30;;;;;;;;;;4972537;28;20219;-34
2022/10/03 01:00:52;;;;;;;4.23;3.83;;;;;;;;;;4973138;28;20572;-34
2022/10/03 01:03:25;;;;;;;6.60;4.60;;;;;;;;;;4974466;28;20212;-32
2022/10/03 01:06:00;;;;;;;4.93;3.80;;;;;;;;;;4965436;28;20211;-32
2022/10/03 01:08:47;;;;;;;5.90;4.97;;;;;;;;;;4972925;28;20242;-33
2022/10/03 01:11:18;;;;;;;5.33;4.43;;;;;;;;;;4974859;28;20234;-34
2022/10/03 01:13:50;;;;;;;7.20;4.97;;;;;;;;;;4973331;28;20204;-33
2022/10/03 01:16:21;;;;;;;5.23;4.40;;;;;;;;;;4971190;28;20224;-34
2022/10/03 01:18:57;;;;;;;8.53;6.33;;;;;;;;;;4978081;28;20225;-33
2022/10/03 01:21:31;;;;;;;9.90;7.47;;;;;;;;;;4972970;28;20235;-33
2022/10/03 01:24:10;;;;;;;7.93;6.90;;;;;;;;;;4973255;28;20208;-34
2022/10/03 01:26:53;;;;;;;7.97;5.33;;;;;;;;;;4967709;28;20223;-31
2022/10/03 01:32:13;;;;;;;6.93;4.80;;;;;;;;;;4968237;28;20252;-33
2022/10/03 01:34:43;;;;;;;6.73;5.77;;;;;;;;;;4972616;28;20224;-33
2022/10/03 01:37:14;;;;;;;6.03;5.43;;;;;;;;;;4972606;28;20280;-33
2022/10/03 01:39:45;;;;;;;7.47;6.17;;;;;;;;;;4972077;28;20228;-33
2022/10/03 01:42:16;;;;;;;8.17;5.83;;;;;;;;;;4968715;28;20212;-33
2022/10/03 01:44:51;;;;;;;6.70;5.57;;;;;;;;;;4972810;28;20224;-33
2022/10/03 01:47:23;;;;;;;9.03;6.13;;;;;;;;;;4970232;28;20517;-34
2022/10/03 01:49:55;;;;;;;7.23;6.00;;;;;;;;;;4972118;28;20260;-32
2022/10/03 01:52:25;;;;;;;8.60;6.47;;;;;;;;;;4972671;28;20211;-33
2022/10/03 01:54:59;;;;;;;8.67;6.33;;;;;;;;;;4971089;28;20205;-34
2022/10/03 01:57:34;;;;;;;9.33;5.70;;;;;;;;;;4977660;28;20297;-32
2022/10/03 02:00:05;;;;;;;9.93;6.37;;;;;;;;;;4971479;28;20232;-34
2022/10/03 02:02:36;;;;;;;7.07;5.87;;;;;;;;;;4961603;28;20236;-33
2022/10/03 02:05:07;;;;;;;7.83;6.27;;;;;;;;;;4972238;28;20211;-32
2022/10/03 02:07:41;;;;;;;8.40;6.57;;;;;;;;;;4972356;28;20205;-34
2022/10/03 02:10:15;;;;;;;6.57;5.87;;;;;;;;;;4972793;28;20221;-32
2022/10/03 02:12:49;;;;;;;6.50;5.60;;;;;;;;;;4979379;28;20218;-35
2022/10/03 02:15:19;;;;;;;8.10;6.23;;;;;;;;;;4972299;28;20201;-33
2022/10/03 02:17:52;;;;;;;8.30;5.53;;;;;;;;;;4970480;28;20201;-33
2022/10/03 02:20:27;;;;;;;8.97;5.83;;;;;;;;;;4973100;28;20414;-35
2022/10/03 02:22:56;;;;;;;8.13;5.43;;;;;;;;;;4972728;28;20295;-33
2022/10/03 02:25:26;;;;;;;6.90;5.83;;;;;;;;;;4969786;28;20280;-34
2022/10/03 02:28:09;;;;;;;6.67;5.97;;;;;;;;;;4959846;28;20218;-35
2022/10/03 02:30:45;;;;;;;6.80;6.03;;;;;;;;;;4973624;28;20227;-33
2022/10/03 02:33:25;;;;;;;6.20;5.60;;;;;;;;;;4972235;28;20213;-32
2022/10/03 02:36:19;;;;;;;9.07;6.20;;;;;;;;;;4971855;28;20220;-35
2022/10/03 02:38:58;;;;;;;9.77;5.73;;;;;;;;;;4971930;28;20268;-31
2022/10/03 02:41:35;;;;;;;6.10;5.43;;;;;;;;;;4970365;28;20236;-33
2022/10/03 02:44:21;;;;;;;11.57;6.23;;;;;;;;;;4971347;28;20226;-35
2022/10/03 02:47:12;;;;;;;8.33;6.03;;;;;;;;;;4970949;28;20204;-33
2022/10/03 02:49:54;;;;;;;7.13;5.80;;;;;;;;;;4970639;28;20235;-32
2022/10/03 02:52:48;;;;;;;7.93;7.03;;;;;;;;;;4929022;28;20209;-33
2022/10/03 02:55:24;;;;;;;7.43;6.10;;;;;;;;;;4971305;28;20212;-32
2022/10/03 02:58:25;;;;;;;10.33;6.87;;;;;;;;;;4969600;28;20296;-34
2022/10/03 03:01:00;;;;;;;7.80;6.50;;;;;;;;;;4970961;28;20227;-33
2022/10/03 03:03:39;;;;;;;9.87;6.47;;;;;;;;;;4977169;28;20247;-33
2022/10/03 03:06:16;;;;;;;11.27;6.17;;;;;;;;;;4971152;28;20210;-32
2022/10/03 03:09:01;;;;;;;7.30;6.20;;;;;;;;;;4971152;28;20303;-34
2022/10/03 03:11:46;;;;;;;16.43;7.30;;;;;;;;;;4964629;28;20232;-35
2022/10/03 03:14:32;;;;;;;6.70;6.00;;;;;;;;;;4972208;28;20212;-33
2022/10/03 03:17:08;;;;;;;7.30;6.60;;;;;;;;;;4956801;28;20204;-34
2022/10/03 03:19:43;;;;;;;8.53;7.30;;;;;;;;;;4970813;28;20267;-34
2022/10/03 03:22:19;;;;;;;11.47;7.73;;;;;;;;;;4971421;28;20208;-32
2022/10/03 03:24:54;;;;;;;8.83;7.03;;;;;;;;;;4971210;28;20208;-34
2022/10/03 03:27:26;;;;;;;8.33;7.13;;;;;;;;;;4960219;28;20205;-34
2022/10/03 03:29:57;;;;;;;8.60;6.67;;;;;;;;;;4971224;28;20283;-33
2022/10/03 03:32:28;;;;;;;8.23;7.33;;;;;;;;;;4963221;28;20277;-32
2022/10/03 03:35:03;;;;;;;8.23;7.03;;;;;;;;;;4970536;28;20205;-34
2022/10/03 03:37:33;;;;;;;9.80;7.13;;;;;;;;;;4970955;28;20204;-34
2022/10/03 03:40:07;;;;;;;10.57;7.00;;;;;;;;;;4970725;28;20311;-34
2022/10/03 03:42:44;;;;;;;8.60;6.50;;;;;;;;;;4975556;28;20231;-32
2022/10/03 03:45:24;;;;;;;8.37;6.87;;;;;;;;;;4975140;28;20242;-32
2022/10/03 03:48:04;;;;;;;7.77;6.27;;;;;;;;;;4966037;28;20201;-33
2022/10/03 03:50:40;;;;;;;8.03;6.70;;;;;;;;;;4970409;28;20321;-34
2022/10/03 03:53:18;;;;;;;6.70;5.30;;;;;;;;;;4971298;28;20291;-34
2022/10/03 03:55:55;;;;;;;7.70;6.33;;;;;;;;;;4970402;28;20206;-33
2022/10/03 03:58:31;;;;;;;9.53;6.90;;;;;;;;;;4963744;28;20254;-32
2022/10/03 04:01:11;;;;;;;7.93;6.93;;;;;;;;;;4970708;28;20263;-34
2022/10/03 04:03:44;;;;;;;8.07;6.30;;;;;;;;;;4969656;28;20212;-35
2022/10/03 04:06:35;;;;;;;8.43;7.00;;;;;;;;;;4970784;28;20207;-35
2022/10/03 04:09:23;;;;;;;6.73;5.60;;;;;;;;;;4970848;28;20208;-34
2022/10/03 04:11:55;;;;;;;7.93;6.87;;;;;;;;;;4945710;28;20215;-31
2022/10/03 04:14:34;;;;;;;8.17;7.23;;;;;;;;;;4975506;28;20307;-35
2022/10/03 04:20:02;;;;;;;7.33;6.10;;;;;;;;;;4964336;28;20243;-33
2022/10/03 04:22:45;;;;;;;8.13;7.10;;;;;;;;;;4972660;28;20208;-31
2022/10/03 04:25:18;;;;;;;8.70;6.83;;;;;;;;;;4981836;28;20259;-32
2022/10/03 04:27:55;;;;;;;8.20;6.63;;;;;;;;;;4975369;28;20208;-33
2022/10/03 04:30:28;;;;;;;7.47;6.50;;;;;;;;;;4974202;28;20224;-32
2022/10/03 04:33:05;;;;;;;8.67;6.87;;;;;;;;;;4974122;28;20280;-35
2022/10/03 04:35:49;;;;;;;10.23;6.80;;;;;;;;;;4974996;28;20235;-34
2022/10/03 04:38:21;;;;;;;10.13;6.77;;;;;;;;;;4974319;28;20255;-33
2022/10/03 04:40:53;;;;;;;9.47;7.57;;;;;;;;;;4976625;28;20221;-35
2022/10/03 04:46:02;;;;;;;8.47;7.50;;;;;;;;;;5313903;23;20240;-36
2022/10/03 04:48:32;;;;;;;10.90;7.70;;;;;;;;;;4965867;28;20216;-33
2022/10/03 04:51:04;;;;;;;9.17;7.70;;;;;;;;;;4981714;28;20209;-31
2022/10/03 04:53:41;;;;;;;8.63;6.67;;;;;;;;;;4974116;28;20219;-33
2022/10/03 04:56:18;;;;;;;7.73;6.20;;;;;;;;;;4966824;28;20206;-36
2022/10/03 04:58:51;;;;;;;7.73;6.50;;;;;;;;;;4973039;28;20204;-31
2022/10/03 05:01:21;;;;;;;9.10;6.90;;;;;;;;;;4970968;28;20243;-34
2022/10/03 05:03:54;;;;;;;7.60;6.33;;;;;;;;;;4980710;28;20200;-31
2022/10/03 05:06:28;;;;;;;9.57;7.10;;;;;;;;;;4992706;28;20208;-32
2022/10/03 05:09:00;;;;;;;8.47;6.50;;;;;;;;;;4993021;28;20226;-33
2022/10/03 05:11:34;;;;;;;7.17;5.87;;;;;;;;;;4975823;28;20229;-35
2022/10/03 05:14:05;;;;;;;10.47;6.50;;;;;;;;;;4979698;28;20212;-35
2022/10/03 05:16:39;;;;;;;6.43;5.57;;;;;;;;;;4984640;28;20238;-34
2022/10/03 05:19:20;;;;;;;9.97;5.80;;;;;;;;;;4974112;28;20275;-32
2022/10/03 05:21:49;;;;;;;6.87;5.93;;;;;;;;;;4984775;28;20200;-31
2022/10/03 05:24:23;;;;;;;8.60;5.83;;;;;;;;;;4984071;28;20201;-33
2022/10/03 05:26:55;;;;;;;7.07;5.63;;;;;;;;;;4977539;28;20204;-32
2022/10/03 05:29:28;;;;;;;5.77;5.07;;;;;;;;;;4992160;28;20287;-35
2022/10/03 05:32:05;;;;;;;6.27;5.10;;;;;;;;;;4983840;28;20232;-32
2022/10/03 05:34:35;;;;;;;7.13;5.30;;;;;;;;;;4963254;28;20216;-33
2022/10/03 05:37:09;;;;;;;5.37;4.40;;;;;;;;;;4972642;28;20204;-36
2022/10/03 05:39:42;;;;;;;5.33;4.80;;;;;;;;;;4972644;28;20228;-33
2022/10/03 05:42:19;;;;;;;5.03;4.53;;;;;;;;;;4962553;28;20208;-31
2022/10/03 05:44:52;;;;;;;5.13;4.63;;;;;;;;;;4974246;28;20231;-34
2022/10/03 05:50:12;;;;;;;4.80;4.20;;;;;;;;;;4966569;28;20232;-33
2022/10/03 05:52:54;;;;;;;6.10;4.70;;;;;;;;;;4973544;28;20215;-33
2022/10/03 05:55:39;;;;;;;5.53;4.93;;;;;;;;;;4971190;28;20203;-32
2022/10/03 05:58:22;;;;;;;4.40;4.00;;;;;;;;;;4965027;28;20215;-33
2022/10/03 06:01:01;;;;;;;5.53;4.57;;;;;;;;;;4978351;28;20238;-33
2022/10/03 06:03:41;;;;;;;5.17;4.40;;;;;;;;;;4972066;28;20292;-35
2022/10/03 06:06:18;;;;;;;6.73;4.20;;;;;;;;;;4981791;28;20206;-34
2022/10/03 06:08:50;;;;;;;4.53;4.13;;;;;;;;;;4985644;28;20200;-32
2022/10/03 06:11:28;;;;;;;7.93;5.00;;;;;;;;;;4994283;28;20223;-32
2022/10/03 06:14:10;;;;;;;6.60;4.50;;;;;;;;;;4977906;28;20210;-34
2022/10/03 06:16:42;;;;;;;5.30;4.80;;;;;;;;;;4985648;28;20212;-32
2022/10/03 06:19:15;;;;;;;7.40;4.33;;;;;;;;;;4987902;28;20207;-35
2022/10/03 06:21:59;;;;;;;5.97;4.77;;;;;;;;;;4986625;28;20235;-35
2022/10/03 06:24:41;;;;;;;6.77;4.50;;;;;;;;;;4994792;28;20218;-35
2022/10/03 06:27:28;;;;;;;7.93;4.10;;;;;;;;;;4978005;28;20205;-35
2022/10/03 06:30:13;;;;;;;6.70;5.40;;;;;;;;;;4982460;28;20227;-34
2022/10/03 06:33:00;;;;;;;6.93;4.87;;;;;;;;;;4974543;28;20213;-33
2022/10/03 06:35:48;;;;;;;6.23;5.00;;;;;;;;;;4983044;28;20266;-33
2022/10/03 06:38:30;;;;;;;8.50;5.40;;;;;;;;;;4994847;28;20193;-35
2022/10/03 06:41:25;;;;;;;6.47;4.50;;;;;;;;;;4982716;28;20225;-32
2022/10/03 06:44:01;;;;;;;6.57;4.80;;;;;;;;;;4944177;28;20217;-32
2022/10/03 06:46:45;;;;;;;6.40;5.30;;;;;;;;;;4986338;28;21959;-31
2022/10/03 06:49:46;;;;;;;6.43;4.77;;;;;;;;;;4984388;28;20199;-31
2022/10/03 06:52:22;;;;;;;7.13;5.37;;;;;;;;;;4938514;29;20201;-32
2022/10/03 06:55:10;;;;;;;8.23;4.87;;;;;;;;;;4934159;29;20209;-34
2022/10/03 06:57:51;;;;;;;11.80;5.80;;;;;;;;;;4956946;28;20221;-30
2022/10/03 07:00:20;;;;;;;7.47;6.00;;;;;;;;;;4982422;28;20239;-34
2022/10/03 07:03:17;;;;;;;6.53;5.47;;;;;;;;;;4967582;28;20208;-34
2022/10/03 07:06:07;;;;;;;8.83;5.83;;;;;;;;;;4981630;28;20288;-32
2022/10/03 07:08:52;;;;;;;8.87;6.90;;;;;;;;;;4974056;28;20213;-32
2022/10/03 07:11:35;;;;;;;8.23;6.00;;;;;;;;;;4967801;28;20225;-32
2022/10/03 07:14:23;;;;;;;6.87;5.77;;;;;;;;;;4973712;28;20208;-31
2022/10/03 07:17:01;;;;;;;7.53;5.70;;;;;;;;;;4967517;28;20208;-36
2022/10/03 07:19:51;;;;;;;7.73;5.73;;;;;;;;;;4978751;28;20212;-33
2022/10/03 07:22:42;;;;;;;9.33;5.83;;;;;;;;;;4974138;28;20224;-32
2022/10/03 07:25:39;;;;;;;7.63;6.73;;;;;;;;;;4902683;28;20208;-30
2022/10/03 07:28:26;;;;;;;12.30;7.40;;;;;;;;;;4976207;28;20247;-30
2022/10/03 07:30:59;;;;;;;12.60;6.87;;;;;;;;;;4986225;28;20224;-32
2022/10/03 07:33:47;;;;;;;9.57;6.20;;;;;;;;;;4973743;28;20215;-32
2022/10/03 07:39:36;;;;;;;6.57;5.67;;;;;;;;;;4979381;28;20224;-33
2022/10/03 07:42:20;;;;;;;10.13;6.57;;;;;;;;;;4974410;28;20215;-30
2022/10/03 07:45:09;;;;;;;7.10;6.20;;;;;;;;;;4975079;28;20204;-31
2022/10/03 07:47:56;;;;;;;11.10;6.77;;;;;;;;;;4967386;28;20219;-31
2022/10/03 07:50:36;;;;;;;12.97;7.20;;;;;;;;;;4983187;28;20228;-32
2022/10/03 07:53:17;;;;;;;10.43;7.00;;;;;;;;;;4971623;28;20269;-30
2022/10/03 07:56:01;;;;;;;12.40;6.70;;;;;;;;;;4973458;28;20204;-31
2022/10/03 07:58:55;;;;;;;9.40;6.97;;;;;;;;;;4972960;28;20200;-31
2022/10/03 08:01:44;;;;;;;12.63;7.30;;;;;;;;;;4922761;28;20264;-32
2022/10/03 08:04:29;;;;;;;10.90;6.93;;;;;;;;;;4981763;28;20214;-31
2022/10/03 08:07:03;;;;;;;11.67;7.00;;;;;;;;;;4979575;28;20201;-32
2022/10/03 08:09:53;;;;;;;8.80;6.93;;;;;;;;;;4971875;28;20230;-31
2022/10/03 08:12:39;;;;;;;12.60;6.90;;;;;;;;;;4938425;28;20233;-31
2022/10/03 08:15:10;;;;;;;12.77;8.27;;;;;;;;;;4968068;28;20259;-34
2022/10/03 08:17:56;;;;;;;13.90;7.67;;;;;;;;;;4966685;28;20205;-31
2022/10/03 08:20:33;;;;;;;11.50;8.13;;;;;;;;;;4991484;28;20231;-31
2022/10/03 08:23:11;;;;;;;12.03;7.90;;;;;;;;;;4993166;28;20188;-30
2022/10/03 08:25:52;;;;;;;12.10;7.90;;;;;;;;;;4984133;28;20197;-31
2022/10/03 08:28:40;;;;;;;10.47;7.93;;;;;;;;;;4973319;28;20209;-34
2022/10/03 08:31:26;;;;;;;13.27;8.10;;;;;;;;;;4973322;28;20224;-34
2022/10/03 08:34:01;;;;;;;11.77;8.93;;;;;;;;;;4977504;28;20218;-34
2022/10/03 08:36:41;;;;;;;12.07;8.90;;;;;;;;;;4984427;28;20211;-32
2022/10/03 08:39:15;;;;;;;17.90;8.97;;;;;;;;;;4987704;28;20204;-33
2022/10/03 08:42:12;;;;;;;13.33;7.70;;;;;;;;;;4974060;28;20217;-34
2022/10/03 08:45:02;;;;;;;14.97;9.30;;;;;;;;;;4983755;28;20303;-34
2022/10/03 08:47:45;;;;;;;12.20;8.10;;;;;;;;;;4976244;28;20209;-33
2022/10/03 08:50:30;;;;;;;11.40;8.00;;;;;;;;;;4991613;28;20227;-33
2022/10/03 08:53:09;;;;;;;12.73;7.83;;;;;;;;;;4957232;28;20198;-30
2022/10/03 08:55:49;;;;;;;13.13;8.43;;;;;;;;;;4976355;28;20642;-29
2022/10/03 08:58:26;;;;;;;18.30;8.83;;;;;;;;;;4977382;28;20288;-35
2022/10/03 09:01:11;;;;;;;11.53;8.20;;;;;;;;;;4966857;28;20229;-31
2022/10/03 09:03:56;;;;;;;13.50;8.97;;;;;;;;;;4975840;28;20209;-35
2022/10/03 09:06:36;;;;;;;9.80;7.90;;;;;;;;;;4976119;28;20299;-35
2022/10/03 09:09:18;;;;;;;11.47;7.83;;;;;;;;;;4974829;28;20196;-32
2022/10/03 09:11:54;;;;;;;11.47;7.40;;;;;;;;;;4977184;28;20280;-30
2022/10/03 09:14:41;;;;;;;10.80;7.00;;;;;;;;;;4984554;28;20196;-31
2022/10/03 09:17:22;;;;;;;13.60;7.53;;;;;;;;;;4980924;28;20256;-33
2022/10/03 09:20:04;;;;;;;13.63;7.97;;;;;;;;;;4977050;28;20239;-34
2022/10/03 09:22:59;;;;;;;9.80;7.30;;;;;;;;;;4976249;28;20220;-33
2022/10/03 09:25:34;;;;;;;12.13;7.00;;;;;;;;;;4969579;28;20213;-32
2022/10/03 09:28:14;;;;;;;16.10;7.30;;;;;;;;;;4985026;28;20211;-33
2022/10/03 09:30:46;;;;;;;9.23;6.30;;;;;;;;;;4995460;28;20282;-32
2022/10/03 09:33:38;;;;;;;9.37;5.87;;;;;;;;;;4979114;28;20240;-30
2022/10/03 09:36:18;;;;;;;9.23;5.00;;;;;;;;;;4987487;28;20197;-32
2022/10/03 09:39:01;;;;;;;8.27;4.47;;;;;;;;;;4995689;28;20193;-34
2022/10/03 09:41:43;;;;;;;10.83;5.00;;;;;;;;;;4971868;28;20232;-34
2022/10/03 09:44:19;;;;;;;11.20;4.80;;;;;;;;;;4981826;28;20224;-31
2022/10/03 09:50:03;;;;;;;8.63;4.37;;;;;;;;;;4989541;28;20283;-32
2022/10/03 09:52:38;;;;;;;4.30;3.90;;;;;;;;;;4962648;28;20213;-32
2022/10/03 09:55:20;;;;;;;7.57;3.93;;;;;;;;;;4974408;28;20248;-32
2022/10/03 09:57:53;;;;;;;8.67;4.43;;;;;;;;;;4975249;28;20281;-36
2022/10/03 10:00:23;;;;;;;7.93;4.77;;;;;;;;;;4986622;28;20238;-35
2022/10/03 10:03:03;;;;;;;8.23;4.90;;;;;;;;;;4973659;28;20244;-34
2022/10/03 10:05:57;;;;;;;6.20;4.33;;;;;;;;;;4982003;28;20211;-32
2022/10/03 10:08:33;;;;;;;9.47;4.80;;;;;;;;;;4968252;28;20208;-35
2022/10/03 10:11:14;;;;;;;10.13;4.90;;;;;;;;;;4983317;28;20316;-33
2022/10/03 10:13:57;;;;;;;6.80;5.03;;;;;;;;;;4985402;28;20203;-35
2022/10/03 10:16:40;;;;;;;9.80;5.57;;;;;;;;;;4985944;28;20213;-34
2022/10/03 10:19:18;;;;;;;7.23;5.17;;;;;;;;;;4975575;28;20233;-33
2022/10/03 10:21:55;;;;;;;9.77;5.60;;;;;;;;;;4993199;28;20258;-33
2022/10/03 10:24:45;;;;;;;10.03;5.87;;;;;;;;;;4995228;28;20188;-34
2022/10/03 10:27:31;;;;;;;8.83;4.83;;;;;;;;;;4970273;28;20210;-30
2022/10/03 10:30:14;;;;;;;7.37;3.73;;;;;;;;;;4986988;28;20224;-36
2022/10/03 10:33:05;;;;;;;7.87;5.63;;;;;;;;;;4974047;28;20203;-34
2022/10/03 10:35:50;;;;;;;9.37;5.23;;;;;;;;;;4979592;28;20211;-34
2022/10/03 10:38:25;;;;;;;9.77;4.97;;;;;;;;;;4974450;28;20218;-32
2022/10/03 10:41:13;;;;;;;6.83;4.60;;;;;;;;;;4968882;28;20233;-32
2022/10/03 10:48:59;;;;;;;7.57;4.53;;;;;;;;;;4940918;29;20305;-28
2022/10/03 10:51:41;;;;;;;9.30;4.83;;;;;;;;;;4935453;29;20588;-29
2022/10/03 10:54:21;;;;;;;8.60;4.60;;;;;;;;;;4933181;29;20210;-30
2022/10/03 10:57:01;;;;;;;9.90;4.47;;;;;;;;;;4932698;29;20208;-30
2022/10/03 10:59:52;;;;;;;7.13;4.37;;;;;;;;;;4941784;29;20293;-30
2022/10/03 11:02:38;;;;;;;8.03;4.20;;;;;;;;;;4940611;29;20221;-29
2022/10/03 11:05:24;;;;;;;8.20;4.47;;;;;;;;;;4931539;29;20289;-29
2022/10/03 11:08:08;;;;;;;8.20;4.43;;;;;;;;;;4917316;29;20222;-30
2022/10/03 11:10:40;;;;;;;8.03;4.63;;;;;;;;;;4919574;29;20234;-29
2022/10/03 11:13:26;;;;;;;7.63;4.27;;;;;;;;;;4928239;29;20207;-29
2022/10/03 11:16:15;;;;;;;9.30;4.03;;;;;;;;;;4928986;29;20223;-30
2022/10/03 11:19:03;;;;;;;5.00;3.10;;;;;;;;;;4934104;29;20578;-29
2022/10/03 11:21:46;;;;;;;8.20;3.93;;;;;;;;;;4935712;29;20608;-29
2022/10/03 11:24:30;;;;;;;9.50;4.20;;;;;;;;;;4936116;29;20190;-29
2022/10/03 11:27:21;;;;;;;5.23;3.63;;;;;;;;;;4935484;29;20212;-28
2022/10/03 11:33:11;;;;;;;3.67;3.03;;;;;;;;;;5141188;27;20558;-41
2022/10/03 11:35:56;;;;;;;4.17;3.00;;;;;;;;;;5150842;27;20208;-40
2022/10/03 11:38:25;;;;;;;6.73;3.27;;;;;;;;;;5152065;27;20213;-42
2022/10/03 11:40:58;;;;;;;9.03;3.50;;;;;;;;;;5146456;27;20220;-41
2022/10/03 11:43:34;;;;;;;6.57;3.10;;;;;;;;;;5119278;27;20204;-36
2022/10/03 11:46:10;;;;;;;6.30;2.90;;;;;;;;;;5139129;27;20206;-40
2022/10/03 11:48:40;;;;;;;6.53;3.43;;;;;;;;;;5130663;27;20213;-38
2022/10/03 11:51:11;;;;;;;6.30;2.90;;;;;;;;;;5130430;27;20233;-39
2022/10/03 11:54:02;;;;;;;9.23;3.57;;;;;;;;;;5131082;27;20194;-41
2022/10/03 11:56:35;;;;;;;6.10;3.03;;;;;;;;;;5135278;27;20209;-39
2022/10/03 11:59:12;;;;;;;4.93;2.83;;;;;;;;;;5144339;27;20185;-41
2022/10/03 12:01:51;;;;;;;11.97;3.27;;;;;;;;;;5144039;27;20208;-41
2022/10/03 12:04:24;;;;;;;4.40;3.00;;;;;;;;;;5123434;27;20202;-38
2022/10/03 12:10:08;;;;;;;4.90;2.60;;;;;;;;;;5072359;27;20225;-42
2022/10/03 12:12:38;;;;;;;9.07;2.93;;;;;;;;;;5123657;27;20218;-39
2022/10/03 12:15:15;;;;;;;4.50;2.80;;;;;;;;;;5123576;27;20202;-40
2022/10/03 12:17:45;;;;;;;3.70;3.20;;;;;;;;;;5114236;27;20256;-40
2022/10/03 12:20:18;;;;;;;4.00;2.30;;;;;;;;;;5129815;27;20232;-38
2022/10/03 12:22:51;;;;;;;5.37;2.60;;;;;;;;;;5116429;27;20191;-40
2022/10/03 12:25:22;;;;;;;5.07;2.60;;;;;;;;;;5126000;27;20197;-37
2022/10/03 12:27:51;;;;;;;4.30;2.67;;;;;;;;;;5120458;27;20230;-39
2022/10/03 12:30:20;;;;;;;4.00;2.50;;;;;;;;;;5134365;27;20943;-40
2022/10/03 12:32:54;;;;;;;4.73;2.50;;;;;;;;;;5130285;27;20782;-38
2022/10/03 12:35:29;;;;;;;2.90;2.67;;;;;;;;;;5142303;27;20197;-40
2022/10/03 12:38:08;;;;;;;4.33;2.90;;;;;;;;;;5109791;28;20196;-40
2022/10/03 12:40:38;;;;;;;4.33;2.50;;;;;;;;;;5117809;27;20226;-40
2022/10/03 12:43:10;;;;;;;4.17;2.63;;;;;;;;;;5116751;27;20200;-39
2022/10/03 12:45:42;;;;;;;7.33;3.20;;;;;;;;;;5128496;27;20192;-43
2022/10/03 12:48:20;;;;;;;6.23;2.70;;;;;;;;;;5111459;27;20656;-39
2022/10/03 12:50:54;;;;;;;4.13;3.23;;;;;;;;;;5105895;27;20225;-37
2022/10/03 12:53:24;;;;;;;7.63;3.00;;;;;;;;;;5123913;27;20188;-39
2022/10/03 12:56:09;;;;;;;5.47;2.93;;;;;;;;;;5102549;28;20299;-37
2022/10/03 12:58:42;;;;;;;3.97;2.53;;;;;;;;;;5100642;28;20211;-41
2022/10/03 13:01:12;;;;;;;10.00;2.93;;;;;;;;;;5108278;27;20222;-41
2022/10/03 13:03:48;;;;;;;3.87;2.50;;;;;;;;;;5122582;27;20286;-41
2022/10/03 13:06:37;;;;;;;4.23;2.90;;;;;;;;;;5137857;27;20202;-39
2022/10/03 13:09:22;;;;;;;7.87;2.77;;;;;;;;;;5132152;27;20670;-33
2022/10/03 13:11:56;;;;;;;5.47;2.80;;;;;;;;;;5124551;27;20207;-39
2022/10/03 13:14:29;;;;;;;6.33;2.93;;;;;;;;;;5118821;27;20202;-41
2022/10/03 13:17:01;;;;;;;3.50;2.10;;;;;;;;;;5116327;27;20205;-40
2022/10/03 13:19:31;;;;;;;6.10;2.77;;;;;;;;;;5109927;27;20199;-40
2022/10/03 13:22:05;;;;;;;5.67;2.77;;;;;;;;;;5119237;27;20235;-41
2022/10/03 13:24:35;;;;;;;4.80;2.70;;;;;;;;;;5115096;28;20252;-39
2022/10/03 13:27:11;;;;;;;3.87;2.57;;;;;;;;;;5116249;27;20199;-40
2022/10/03 13:29:41;;;;;;;5.80;2.80;;;;;;;;;;5114958;27;20245;-34
2022/10/03 13:32:18;;;;;;;5.03;2.93;;;;;;;;;;5120630;27;20312;-43
2022/10/03 13:35:57;;;;;;;7.23;2.93;;;;;;;;;;5121244;27;20212;-41
2022/10/03 13:38:08;;;;;;;6.77;2.43;;;;;;;;;;5108054;28;20207;-43
2022/10/03 13:40:38;;;;;;;10.23;3.27;;;;;;;;;;5075115;27;20228;-38
2022/10/03 13:43:12;;;;;;;3.67;2.37;;;;;;;;;;5115657;27;20201;-40
2022/10/03 13:45:41;;;;;;;6.83;3.33;;;;;;;;;;5133966;27;20207;-40
2022/10/03 13:48:11;;;;;;;7.13;3.40;;;;;;;;;;5116191;27;20199;-39
2022/10/03 13:50:42;;;;;;;5.17;2.30;;;;;;;;;;5122463;27;20217;-43
2022/10/03 13:53:13;;;;;;;5.90;3.00;;;;;;;;;;5115067;28;20277;-42
2022/10/03 13:55:45;;;;;;;4.77;2.53;;;;;;;;;;5111045;28;20205;-43
2022/10/03 13:58:25;;;;;;;3.73;2.40;;;;;;;;;;5100809;27;20203;-43
2022/10/03 14:01:10;;;;;;;7.10;2.50;;;;;;;;;;5118564;27;20215;-42
2022/10/03 14:03:43;;;;;;;6.73;3.17;;;;;;;;;;5114820;27;20234;-38
2022/10/03 14:06:15;;;;;;;3.27;2.20;;;;;;;;;;5119542;27;20200;-42
2022/10/03 14:08:59;;;;;;;2.17;1.97;;;;;;;;;;5114434;28;20196;-39
2022/10/03 14:11:30;;;;;;;7.77;2.10;;;;;;;;;;5105326;27;20220;-39
2022/10/03 14:14:07;;;;;;;4.00;2.23;;;;;;;;;;5122470;27;20196;-41
2022/10/03 14:16:35;;;;;;;5.03;2.00;;;;;;;;;;5111488;28;20207;-41
2022/10/03 14:19:10;;;;;;;4.77;2.40;;;;;;;;;;5100036;27;20217;-39
2022/10/03 14:21:43;;;;;;;2.27;1.90;;;;;;;;;;5097755;28;20210;-40
2022/10/03 14:24:19;;;;;;;4.80;2.07;;;;;;;;;;5110582;28;20295;-39
2022/10/03 14:26:48;;;;;;;6.10;2.17;;;;;;;;;;5106279;28;20204;-40
2022/10/03 14:29:21;;;;;;;3.83;2.33;;;;;;;;;;5109447;28;20208;-40
2022/10/03 14:31:51;;;;;;;3.87;2.00;;;;;;;;;;5117295;27;20227;-43
2022/10/03 14:34:24;;;;;;;5.77;1.90;;;;;;;;;;5122703;27;20223;-42
2022/10/03 14:36:54;;;;;;;4.57;2.07;;;;;;;;;;5116823;27;20307;-42
2022/10/03 14:39:28;;;;;;;7.23;2.70;;;;;;;;;;5092852;28;20189;-35
2022/10/03 14:42:08;;;;;;;3.00;2.00;;;;;;;;;;5102483;27;20336;-42
2022/10/03 14:44:39;;;;;;;5.20;2.70;;;;;;;;;;5120173;27;20280;-43
2022/10/03 14:47:08;;;;;;;6.70;3.00;;;;;;;;;;5118302;27;20292;-41
2022/10/03 14:49:39;;;;;;;5.10;2.43;;;;;;;;;;5118583;27;20217;-36
2022/10/03 14:52:08;;;;;;;6.37;1.93;;;;;;;;;;5112927;28;20620;-40
2022/10/03 14:54:38;;;;;;;4.73;2.30;;;;;;;;;;5113100;28;20257;-38
2022/10/03 14:57:14;;;;;;;3.97;1.90;;;;;;;;;;5098163;28;20208;-41
2022/10/03 14:59:43;;;;;;;4.13;2.37;;;;;;;;;;5109331;28;20224;-41
2022/10/03 15:02:24;;;;;;;2.97;2.03;;;;;;;;;;5111632;27;20201;-42
2022/10/03 15:04:53;;;;;;;4.73;2.33;;;;;;;;;;5117336;27;20206;-43
2022/10/03 15:07:33;;;;;;;5.10;2.60;;;;;;;;;;5112082;27;20206;-43
2022/10/03 15:10:02;;;;;;;4.97;2.17;;;;;;;;;;5105717;28;20602;-38
2022/10/03 15:12:33;;;;;;;6.23;2.77;;;;;;;;;;5110977;27;20220;-42
2022/10/03 15:15:03;;;;;;;4.17;3.27;;;;;;;;;;5125366;27;20257;-41
2022/10/03 15:17:33;;;;;;;3.77;2.83;;;;;;;;;;5105101;28;20202;-37
2022/10/03 15:20:01;;;;;;;4.33;2.30;;;;;;;;;;5108999;28;20224;-42
2022/10/03 15:22:31;;;;;;;6.67;2.70;;;;;;;;;;5112300;28;20564;-38
2022/10/03 15:25:01;;;;;;;4.10;2.13;;;;;;;;;;5111052;28;20204;-41
2022/10/03 15:27:29;;;;;;;4.57;2.37;;;;;;;;;;5115350;27;20206;-38
2022/10/03 15:29:58;;;;;;;5.23;2.20;;;;;;;;;;5117272;28;20215;-40
2022/10/03 15:32:28;;;;;;;4.97;2.20;;;;;;;;;;5120196;27;20323;-41
2022/10/03 15:34:59;;;;;;;7.50;2.30;;;;;;;;;;5122026;27;20213;-42
2022/10/03 15:37:32;;;;;;;5.53;2.20;;;;;;;;;;5099864;28;20203;-36
2022/10/03 15:40:01;;;;;;;2.37;2.17;;;;;;;;;;5095408;28;20227;-42
2022/10/03 15:42:31;;;;;;;5.07;2.70;;;;;;;;;;5102320;28;20280;-41
2022/10/03 15:44:59;;;;;;;7.00;3.00;;;;;;;;;;5120654;28;20202;-40
2022/10/03 15:47:29;;;;;;;4.27;2.10;;;;;;;;;;5106830;28;20593;-38
2022/10/03 15:49:59;;;;;;;3.73;2.80;;;;;;;;;;5118555;27;20344;-37
2022/10/03 15:52:31;;;;;;;5.57;3.00;;;;;;;;;;5109822;28;20251;-36
2022/10/03 15:54:59;;;;;;;6.20;2.97;;;;;;;;;;5113251;28;20204;-42
2022/10/03 15:57:29;;;;;;;7.30;2.73;;;;;;;;;;5106714;28;20204;-35
2022/10/03 15:59:58;;;;;;;3.63;2.20;;;;;;;;;;5099253;28;20685;-35
2022/10/03 16:02:28;;;;;;;2.80;2.10;;;;;;;;;;5116286;28;20207;-40
2022/10/03 16:04:56;;;;;;;3.93;2.07;;;;;;;;;;5114715;28;20203;-39
2022/10/03 16:07:28;;;;;;;4.77;2.33;;;;;;;;;;5126595;27;20202;-41
2022/10/03 16:09:57;;;;;;;2.87;2.30;;;;;;;;;;5110507;28;20224;-41
2022/10/03 16:12:41;;;;;;;6.40;2.20;;;;;;;;;;5104777;28;20682;-37